createdAt,value
2018-12-10T00:00:13.321Z,99072.59
2018-12-10T00:02:43.575Z,99079.41
2018-12-10T00:05:11.675Z,99084.56
2018-12-10T00:07:39.751Z,99093.66
2018-12-10T00:10:07.865Z,99096.75
2018-12-10T00:12:35.929Z,99104.72
2018-12-10T00:15:04.460Z,99097.55
2018-12-10T00:17:32.516Z,99100.31
2018-12-10T00:20:00.592Z,99108.22
2018-12-10T00:22:28.736Z,99114.06
2018-12-10T00:24:57.095Z,99117.95
2018-12-10T00:27:25.189Z,99122.36
2018-12-10T00:29:53.208Z,99115.67
2018-12-10T00:32:21.638Z,99107.05
2018-12-10T00:34:49.783Z,99119.42
2018-12-10T00:37:17.854Z,99122.73
2018-12-10T00:39:45.935Z,99119.45
2018-12-10T00:42:14.131Z,99125.20
2018-12-10T00:44:42.788Z,99132.91
2018-12-10T00:47:10.836Z,99140.45
2018-12-10T00:49:38.937Z,99152.03
2018-12-10T00:52:07.121Z,99151.54
2018-12-10T00:54:35.219Z,99156.24
2018-12-10T00:57:03.300Z,99151.81
2018-12-10T00:59:31.802Z,99162.37
2018-12-10T01:01:59.957Z,99168.22
2018-12-10T01:04:28.286Z,99174.55
2018-12-10T01:06:56.364Z,99182.67
2018-12-10T01:09:24.504Z,99190.98
2018-12-10T01:11:52.635Z,99189.62
2018-12-10T01:14:20.777Z,99188.45
2018-12-10T01:16:48.928Z,99190.73
2018-12-10T01:19:17.069Z,99201.02
2018-12-10T01:21:45.263Z,99203.61
2018-12-10T01:24:13.439Z,99205.55
2018-12-10T01:26:41.569Z,99208.50
2018-12-10T01:29:09.716Z,99210.52
2018-12-10T01:31:37.863Z,99214.28
2018-12-10T01:34:11.181Z,99208.30
2018-12-10T01:36:39.360Z,99209.17
2018-12-10T01:39:07.479Z,99212.17
2018-12-10T01:41:35.542Z,99215.18
2018-12-10T01:44:03.693Z,99218.55
2018-12-10T01:46:31.874Z,99210.66
2018-12-10T01:48:59.999Z,99209.48
2018-12-10T01:51:28.089Z,99220.88
2018-12-10T01:53:56.281Z,99227.33
2018-12-10T01:56:24.322Z,99230.20
2018-12-10T01:58:52.359Z,99234.81
2018-12-10T02:01:20.445Z,99240.41
2018-12-10T02:03:48.668Z,99240.77
2018-12-10T02:06:16.879Z,99253.34
2018-12-10T02:08:44.981Z,99252.33
2018-12-10T02:11:13.145Z,99253.80
2018-12-10T02:13:41.201Z,99252.61
2018-12-10T02:16:09.333Z,99248.84
2018-12-10T02:18:38.132Z,99241.27
2018-12-10T02:21:07.072Z,99245.43
2018-12-10T02:23:35.357Z,99241.45
2018-12-10T02:26:03.666Z,99255.61
2018-12-10T02:28:37.299Z,99261.12
2018-12-10T02:31:06.132Z,99270.23
2018-12-10T02:33:34.121Z,99269.89
2018-12-10T02:36:02.179Z,99262.53
2018-12-10T02:38:30.245Z,99267.39
2018-12-10T02:40:58.366Z,99271.91
2018-12-10T02:43:26.533Z,99277.11
2018-12-10T02:45:54.727Z,99282.66
2018-12-10T02:48:22.890Z,99289.15
2018-12-10T02:50:51.422Z,99293.18
2018-12-10T02:53:19.717Z,99298.70
2018-12-10T02:55:47.870Z,99298.95
2018-12-10T02:58:16.052Z,99300.53
2018-12-10T03:00:44.216Z,99308.02
2018-12-10T03:03:12.333Z,99314.69
2018-12-10T03:05:40.486Z,99313.48
2018-12-10T03:08:08.568Z,99319.50
2018-12-10T03:10:36.878Z,99318.80
2018-12-10T03:13:05.825Z,99329.87
2018-12-10T03:15:39.028Z,99329.07
2018-12-10T03:18:07.134Z,99334.97
2018-12-10T03:20:35.208Z,99333.81
2018-12-10T03:23:03.486Z,99337.42
2018-12-10T03:25:31.671Z,99339.52
2018-12-10T03:27:59.862Z,99337.06
2018-12-10T03:30:28.108Z,99343.23
2018-12-10T03:32:56.315Z,99347.47
2018-12-10T03:35:29.467Z,99350.52
2018-12-10T03:37:57.630Z,99349.58
2018-12-10T03:40:25.779Z,99353.17
2018-12-10T03:42:53.880Z,99362.31
2018-12-10T03:45:27.212Z,99360.55
2018-12-10T03:47:55.302Z,99362.08
2018-12-10T03:50:23.407Z,99372.70
2018-12-10T03:52:51.432Z,99374.89
2018-12-10T03:55:19.788Z,99381.79
2018-12-10T03:57:47.899Z,99380.73
2018-12-10T04:00:16.123Z,99382.77
2018-12-10T04:02:44.205Z,99383.92
2018-12-10T04:05:12.645Z,99397.04
2018-12-10T04:07:40.740Z,99396.63
2018-12-10T04:10:08.799Z,99396.41
2018-12-10T04:12:36.869Z,99407.53
2018-12-10T04:15:05.100Z,99406.47
2018-12-10T04:17:33.341Z,99411.56
2018-12-10T04:20:01.473Z,99409.45
2018-12-10T04:22:29.568Z,99411.74
2018-12-10T04:24:57.615Z,99415.50
2018-12-10T04:27:25.752Z,99408.95
2018-12-10T04:29:53.954Z,99416.26
2018-12-10T04:32:22.088Z,99420.52
2018-12-10T04:34:50.166Z,99417.23
2018-12-10T04:37:18.235Z,99415.61
2018-12-10T04:39:46.246Z,99410.52
2018-12-10T04:42:14.356Z,99421.58
2018-12-10T04:44:42.807Z,99425.05
2018-12-10T04:47:10.871Z,99412.11
2018-12-10T04:49:38.994Z,99422.06
2018-12-10T04:52:07.114Z,99420.75
2018-12-10T04:54:35.215Z,99423.47
2018-12-10T04:57:03.883Z,99429.63
2018-12-10T04:59:31.932Z,99433.69
2018-12-10T05:02:00.057Z,99432.53
2018-12-10T05:04:28.283Z,99441.50
2018-12-10T05:06:56.442Z,99437.08
2018-12-10T05:09:24.878Z,99439.89
2018-12-10T05:11:53.287Z,99443.35
2018-12-10T05:14:22.102Z,99442.05
2018-12-10T05:16:50.234Z,99448.61
2018-12-10T05:19:18.409Z,99448.83
2018-12-10T05:21:46.567Z,99453.58
2018-12-10T05:24:15.000Z,99454.84
2018-12-10T05:26:43.093Z,99460.03
2018-12-10T05:29:11.154Z,99463.28
2018-12-10T05:31:39.396Z,99462.64
2018-12-10T05:34:07.575Z,99462.16
2018-12-10T05:36:35.644Z,99468.02
2018-12-10T05:39:06.385Z,99467.86
2018-12-10T05:41:34.437Z,99465.42
2018-12-10T05:44:02.605Z,99465.41
2018-12-10T05:46:30.693Z,99468.66
2018-12-10T05:48:58.808Z,99466.05
2018-12-10T05:51:29.366Z,99474.16
2018-12-10T05:53:59.064Z,99477.52
2018-12-10T05:56:28.514Z,99481.43
2018-12-10T05:58:58.131Z,99482.13
2018-12-10T06:01:27.329Z,99490.79
2018-12-10T06:03:56.733Z,99494.27
2018-12-10T06:06:24.808Z,99496.09
2018-12-10T06:08:52.976Z,99501.02
2018-12-10T06:14:23.765Z,99506.14
2018-12-10T06:16:51.796Z,99506.63
2018-12-10T06:19:24.246Z,99513.50
2018-12-10T06:21:56.989Z,99514.85
2018-12-10T06:24:25.363Z,99523.63
2018-12-10T06:26:53.482Z,99519.56
2018-12-10T06:29:21.569Z,99524.75
2018-12-10T06:31:51.369Z,99519.53
2018-12-10T06:34:19.517Z,99527.38
2018-12-10T06:36:47.666Z,99531.66
2018-12-10T06:39:15.958Z,99537.08
2018-12-10T06:41:44.078Z,99547.89
2018-12-10T06:44:12.268Z,99544.31
2018-12-10T06:46:40.389Z,99547.84
2018-12-10T06:49:08.440Z,99543.62
2018-12-10T06:51:36.581Z,99543.50
2018-12-10T06:54:04.951Z,99548.89
2018-12-10T06:56:33.145Z,99548.94
2018-12-10T06:59:01.325Z,99544.55
2018-12-10T07:01:29.510Z,99544.52
2018-12-10T07:03:57.837Z,99546.27
2018-12-10T07:06:25.973Z,99554.69
2018-12-10T07:08:54.103Z,99555.20
2018-12-10T07:11:22.206Z,99555.19
2018-12-10T07:13:55.295Z,99558.70
2018-12-10T07:16:23.426Z,99565.86
2018-12-10T07:18:51.653Z,99569.17
2018-12-10T07:21:19.829Z,99578.58
2018-12-10T07:23:48.196Z,99588.70
2018-12-10T07:26:16.378Z,99586.33
2018-12-10T07:28:44.550Z,99596.70
2018-12-10T07:31:12.671Z,99594.47
2018-12-10T07:33:41.136Z,99607.44
2018-12-10T07:36:09.218Z,99597.51
2018-12-10T07:38:37.350Z,99599.45
2018-12-10T07:41:05.555Z,99600.30
2018-12-10T07:43:33.698Z,99599.31
2018-12-10T07:46:01.827Z,99598.34
2018-12-10T07:48:29.946Z,99603.13
2018-12-10T07:50:58.084Z,99604.27
2018-12-10T07:53:32.161Z,99609.69
2018-12-10T07:56:01.161Z,99613.64
2018-12-10T07:58:29.277Z,99614.06
2018-12-10T08:00:57.517Z,99617.70
2018-12-10T08:03:25.951Z,99623.30
2018-12-10T08:05:54.094Z,99629.82
2018-12-10T08:08:22.244Z,99619.84
2018-12-10T08:10:50.349Z,99615.78
2018-12-10T08:13:18.516Z,99616.08
2018-12-10T08:15:46.582Z,99612.98
2018-12-10T08:18:14.717Z,99614.09
2018-12-10T08:20:42.879Z,99618.91
2018-12-10T08:23:10.979Z,99622.59
2018-12-10T08:25:39.187Z,99624.69
2018-12-10T08:28:07.321Z,99633.65
2018-12-10T08:30:35.629Z,99625.56
2018-12-10T08:33:03.887Z,99630.41
2018-12-10T08:35:40.816Z,99631.67
2018-12-10T08:38:07.425Z,99621.25
2018-12-10T08:40:35.548Z,99622.58
2018-12-10T08:43:04.023Z,99640.70
2018-12-10T08:45:32.247Z,99647.42
2018-12-10T08:48:00.467Z,99657.23
2018-12-10T08:50:28.622Z,99634.61
2018-12-10T08:52:56.784Z,99670.53
2018-12-10T08:55:25.005Z,99671.58
2018-12-10T08:57:53.117Z,99666.77
2018-12-10T09:00:21.244Z,99690.86
2018-12-10T09:02:49.617Z,99694.63
2018-12-10T09:05:23.331Z,99701.30
2018-12-10T09:07:51.377Z,99705.50
2018-12-10T09:10:19.436Z,99697.89
2018-12-10T09:12:47.640Z,99695.11
2018-12-10T09:15:15.942Z,99693.88
2018-12-10T09:17:44.046Z,99701.79
2018-12-10T09:20:12.199Z,99705.25
2018-12-10T09:22:40.349Z,99701.92
2018-12-10T09:25:08.535Z,99704.42
2018-12-10T09:27:36.582Z,99706.11
2018-12-10T09:30:07.632Z,99709.95
2018-12-10T09:32:35.720Z,99713.40
2018-12-10T09:35:04.760Z,99710.50
2018-12-10T09:37:32.855Z,99719.14
2018-12-10T09:40:00.989Z,99720.56
2018-12-10T09:42:29.115Z,99715.64
2018-12-10T09:44:57.220Z,99702.22
2018-12-10T09:47:25.344Z,99702.20
2018-12-10T09:49:53.452Z,99703.98
2018-12-10T09:52:21.529Z,99699.13
2018-12-10T09:54:49.726Z,99708.22
2018-12-10T09:57:18.063Z,99708.50
2018-12-10T09:59:46.236Z,99710.63
2018-12-10T10:02:14.336Z,99701.98
2018-12-10T10:04:42.775Z,99700.87
2018-12-10T10:07:10.904Z,99701.50
2018-12-10T10:09:39.195Z,99699.20
2018-12-10T10:12:07.293Z,99691.16
2018-12-10T10:14:35.587Z,99693.30
2018-12-10T10:17:03.864Z,99693.94
2018-12-10T10:19:32.047Z,99692.09
2018-12-10T10:22:00.107Z,99697.77
2018-12-10T10:24:28.280Z,99694.16
2018-12-10T10:26:56.353Z,99690.36
2018-12-10T10:29:24.413Z,99698.09
2018-12-10T10:31:52.585Z,99691.09
2018-12-10T10:34:26.044Z,99696.80
2018-12-10T10:36:54.141Z,99697.41
2018-12-10T10:39:22.310Z,99690.20
2018-12-10T10:41:50.559Z,99697.36
2018-12-10T10:44:18.721Z,99696.38
2018-12-10T10:46:46.784Z,99696.16
2018-12-10T10:49:14.847Z,99696.19
2018-12-10T10:51:43.974Z,99701.06
2018-12-10T10:54:12.402Z,99703.92
2018-12-10T10:56:40.547Z,99700.09
2018-12-10T10:59:09.623Z,99705.78
2018-12-10T11:01:43.545Z,99708.23
2018-12-10T11:04:11.672Z,99718.78
2018-12-10T11:06:39.947Z,99709.44
2018-12-10T11:09:15.023Z,99707.88
2018-12-10T11:11:38.222Z,99710.05
2018-12-10T11:14:06.335Z,99705.29
2018-12-10T11:16:34.448Z,99702.58
2018-12-10T11:19:02.632Z,99700.30
2018-12-10T11:21:30.781Z,99688.28
2018-12-10T11:23:59.050Z,99693.38
2018-12-10T11:26:27.236Z,99692.68
2018-12-10T11:28:55.382Z,99690.02
2018-12-10T11:31:23.538Z,99685.05
2018-12-10T11:33:51.743Z,99685.13
2018-12-10T11:36:19.965Z,99675.98
2018-12-10T11:38:48.005Z,99672.70
2018-12-10T11:41:16.234Z,99666.92
2018-12-10T11:43:44.370Z,99652.58
2018-12-10T11:46:12.508Z,99657.23
2018-12-10T11:48:40.642Z,99656.16
2018-12-10T11:51:08.752Z,99659.82
2018-12-10T11:53:37.189Z,99641.45
2018-12-10T11:56:05.499Z,99640.47
2018-12-10T11:58:33.727Z,99642.08
2018-12-10T12:01:01.861Z,99650.59
2018-12-10T12:03:30.123Z,99652.16
2018-12-10T12:05:58.192Z,99656.44
2018-12-10T12:08:26.201Z,99645.09
2018-12-10T12:10:54.476Z,99647.38
2018-12-10T12:13:22.610Z,99640.45
2018-12-10T12:15:50.940Z,99640.97
2018-12-10T12:18:19.542Z,99633.41
2018-12-10T12:20:48.317Z,99643.89
2018-12-10T12:23:16.412Z,99641.34
2018-12-10T12:25:44.546Z,99635.37
2018-12-10T12:28:12.655Z,99629.45
2018-12-10T12:30:40.801Z,99625.62
2018-12-10T12:33:08.903Z,99625.38
2018-12-10T12:35:37.144Z,99627.81
2018-12-10T12:38:05.472Z,99617.66
2018-12-10T12:40:33.666Z,99619.62
2018-12-10T12:43:06.896Z,99622.69
2018-12-10T12:45:32.077Z,99602.91
2018-12-10T12:48:00.210Z,99610.27
2018-12-10T12:50:28.368Z,99612.71
2018-12-10T12:52:56.459Z,99608.75
2018-12-10T12:55:24.650Z,99595.91
2018-12-10T12:57:52.827Z,99597.64
2018-12-10T13:00:27.074Z,99600.54
2018-12-10T13:02:51.265Z,99622.61
2018-12-10T13:05:19.501Z,99622.33
2018-12-10T13:07:47.804Z,99621.27
2018-12-10T13:10:15.968Z,99621.65
2018-12-10T13:12:44.067Z,99626.84
2018-12-10T13:15:12.171Z,99618.91
2018-12-10T13:17:40.446Z,99612.63
2018-12-10T13:20:08.712Z,99607.33
2018-12-10T13:22:36.923Z,99604.03
2018-12-10T13:25:05.157Z,99612.59
2018-12-10T13:27:33.359Z,99605.20
2018-12-10T13:30:01.518Z,99599.78
2018-12-10T13:32:29.608Z,99597.62
2018-12-10T13:34:57.788Z,99601.53
2018-12-10T13:37:25.975Z,99593.67
2018-12-10T13:39:54.080Z,99601.02
2018-12-10T13:42:22.150Z,99598.37
2018-12-10T13:44:50.250Z,99597.38
2018-12-10T13:47:19.318Z,99598.44
2018-12-10T13:49:47.458Z,99599.51
2018-12-10T13:52:15.612Z,99606.22
2018-12-10T13:54:43.791Z,99602.09
2018-12-10T13:57:11.957Z,99597.41
2018-12-10T13:59:40.223Z,99573.56
2018-12-10T14:02:08.434Z,99585.91
2018-12-10T14:04:41.916Z,99603.38
2018-12-10T14:07:10.088Z,99608.44
2018-12-10T14:09:38.388Z,99601.89
2018-12-10T14:12:06.516Z,99593.50
2018-12-10T14:14:34.846Z,99598.03
2018-12-10T14:17:03.172Z,99597.48
2018-12-10T14:19:31.369Z,99600.67
2018-12-10T14:21:59.554Z,99601.29
2018-12-10T14:24:28.008Z,99605.30
2018-12-10T14:26:56.980Z,99605.89
2018-12-10T14:29:25.149Z,99613.31
2018-12-10T14:31:53.284Z,99613.19
2018-12-10T14:34:24.969Z,99610.56
2018-12-10T14:36:53.196Z,99621.19
2018-12-10T14:39:21.261Z,99609.64
2018-12-10T14:41:49.377Z,99620.33
2018-12-10T14:44:17.475Z,99622.77
2018-12-10T14:46:45.619Z,99622.91
2018-12-10T14:49:13.914Z,99627.44
2018-12-10T14:51:42.137Z,99627.44
2018-12-10T14:54:10.364Z,99633.48
2018-12-10T14:56:38.487Z,99647.92
2018-12-10T14:59:06.649Z,99637.94
2018-12-10T15:01:34.694Z,99635.64
2018-12-10T15:04:03.712Z,99635.86
2018-12-10T15:06:31.844Z,99628.41
2018-12-10T15:08:59.963Z,99633.50
2018-12-10T15:11:28.077Z,99638.22
2018-12-10T15:14:01.435Z,99644.83
2018-12-10T15:16:29.647Z,99649.45
2018-12-10T15:18:57.710Z,99661.72
2018-12-10T15:21:25.814Z,99669.36
2018-12-10T15:23:53.960Z,99660.30
2018-12-10T15:26:22.132Z,99662.86
2018-12-10T15:28:50.333Z,99665.91
2018-12-10T15:31:18.495Z,99665.13
2018-12-10T15:33:46.752Z,99661.02
2018-12-10T15:36:14.931Z,99666.73
2018-12-10T15:38:43.711Z,99661.89
2018-12-10T15:41:11.900Z,99670.02
2018-12-10T15:43:40.399Z,99668.29
2018-12-10T15:46:08.587Z,99666.74
2018-12-10T15:48:37.090Z,99669.16
2018-12-10T15:51:05.212Z,99670.74
2018-12-10T15:53:33.651Z,99671.30
2018-12-10T15:56:01.952Z,99673.69
2018-12-10T15:58:30.178Z,99673.92
2018-12-10T16:00:58.336Z,99670.77
2018-12-10T16:03:26.619Z,99673.43
2018-12-10T16:05:54.808Z,99677.48
2018-12-10T16:08:23.048Z,99674.52
2018-12-10T16:10:51.188Z,99658.78
2018-12-10T16:13:19.412Z,99661.93
2018-12-10T16:15:47.505Z,99683.27
2018-12-10T16:18:15.699Z,99686.08
2018-12-10T16:20:43.893Z,99679.83
2018-12-10T16:23:12.198Z,99679.33
2018-12-10T16:25:40.360Z,99684.89
2018-12-10T16:28:08.533Z,99677.84
2018-12-10T16:30:37.050Z,99689.31
2018-12-10T16:33:05.295Z,99677.09
2018-12-10T16:35:33.806Z,99677.85
2018-12-10T16:38:01.933Z,99686.99
2018-12-10T16:40:30.161Z,99681.63
2018-12-10T16:42:58.388Z,99648.55
2018-12-10T16:45:26.619Z,99706.92
2018-12-10T16:47:54.816Z,99707.55
2018-12-10T16:50:23.619Z,99713.16
2018-12-10T16:52:51.886Z,99712.45
2018-12-10T16:55:20.077Z,99716.80
2018-12-10T16:57:48.240Z,99720.23
2018-12-10T17:00:16.468Z,99724.31
2018-12-10T17:02:44.784Z,99728.23
2018-12-10T17:05:21.042Z,99725.41
2018-12-10T17:07:49.161Z,99729.19
2018-12-10T17:10:17.249Z,99727.09
2018-12-10T17:12:45.367Z,99713.95
2018-12-10T17:15:13.832Z,99716.06
2018-12-10T17:17:42.011Z,99719.17
2018-12-10T17:20:10.254Z,99720.56
2018-12-10T17:22:38.481Z,99714.08
2018-12-10T17:25:07.280Z,99716.42
2018-12-10T17:27:35.650Z,99722.28
2018-12-10T17:30:05.163Z,99710.87
2018-12-10T17:32:33.400Z,99715.76
2018-12-10T17:35:01.556Z,99712.48
2018-12-10T17:37:29.745Z,99708.38
2018-12-10T17:39:57.919Z,99711.74
2018-12-10T17:42:26.091Z,99709.86
2018-12-10T17:44:54.285Z,99713.16
2018-12-10T17:47:22.438Z,99705.58
2018-12-10T17:49:50.898Z,99703.00
2018-12-10T17:52:19.039Z,99709.97
2018-12-10T17:54:47.233Z,99708.55
2018-12-10T17:57:15.469Z,99703.54
2018-12-10T17:59:43.567Z,99707.66
2018-12-10T18:02:11.808Z,99699.95
2018-12-10T18:04:40.051Z,99700.32
2018-12-10T18:07:08.222Z,99696.33
2018-12-10T18:09:36.382Z,99692.41
2018-12-10T18:12:04.620Z,99696.01
2018-12-10T18:14:32.831Z,99690.39
2018-12-10T18:17:01.234Z,99683.69
2018-12-10T18:19:29.598Z,99683.81
2018-12-10T18:21:57.742Z,99684.95
2018-12-10T18:24:25.899Z,99679.55
2018-12-10T18:26:54.049Z,99685.42
2018-12-10T18:29:22.257Z,99689.16
2018-12-10T18:31:50.438Z,99686.38
2018-12-10T18:34:18.621Z,99694.20
2018-12-10T18:36:46.740Z,99695.03
2018-12-10T18:39:14.881Z,99702.19
2018-12-10T18:41:43.031Z,99702.22
2018-12-10T18:44:11.687Z,99695.70
2018-12-10T18:46:39.902Z,99705.84
2018-12-10T18:49:08.060Z,99704.98
2018-12-10T18:51:36.147Z,99708.52
2018-12-10T18:54:04.311Z,99702.00
2018-12-10T18:56:32.787Z,99702.54
2018-12-10T18:59:00.991Z,99699.38
2018-12-10T19:01:29.990Z,99693.77
2018-12-10T19:04:02.297Z,99695.55
2018-12-10T19:06:30.664Z,99695.73
2018-12-10T19:08:59.201Z,99693.66
2018-12-10T19:11:27.376Z,99698.91
2018-12-10T19:13:55.775Z,99703.25
2018-12-10T19:16:24.106Z,99705.88
2018-12-10T19:18:52.507Z,99721.78
2018-12-10T19:21:20.659Z,99725.31
2018-12-10T19:23:48.906Z,99730.81
2018-12-10T19:26:17.082Z,99726.77
2018-12-10T19:28:45.250Z,99723.98
2018-12-10T19:31:17.193Z,99726.05
2018-12-10T19:33:45.539Z,99725.94
2018-12-10T19:36:13.690Z,99723.59
2018-12-10T19:38:41.822Z,99719.63
2018-12-10T19:41:10.058Z,99731.35
2018-12-10T19:43:38.145Z,99726.91
2018-12-10T19:46:06.342Z,99722.38
2018-12-10T19:48:34.483Z,99719.48
2018-12-10T19:51:02.701Z,99725.85
2018-12-10T19:53:30.950Z,99720.56
2018-12-10T19:55:59.256Z,99719.26
2018-12-10T19:58:29.511Z,99717.80
2018-12-10T20:00:57.770Z,99716.42
2018-12-10T20:03:26.243Z,99724.39
2018-12-10T20:05:59.999Z,99718.52
2018-12-10T20:08:28.377Z,99721.98
2018-12-10T20:10:57.325Z,99712.45
2018-12-10T20:13:25.517Z,99713.36
2018-12-10T20:15:53.783Z,99701.80
2018-12-10T20:18:22.082Z,99694.44
2018-12-10T20:20:50.368Z,99703.75
2018-12-10T20:23:18.720Z,99697.92
2018-12-10T20:25:47.033Z,99704.64
2018-12-10T20:28:15.195Z,99701.63
2018-12-10T20:30:43.403Z,99716.95
2018-12-10T20:33:11.737Z,99711.83
2018-12-10T20:35:40.069Z,99719.48
2018-12-10T20:38:08.223Z,99724.54
2018-12-10T20:40:36.348Z,99721.02
2018-12-10T20:43:04.563Z,99717.68
2018-12-10T20:45:32.803Z,99721.31
2018-12-10T20:48:00.980Z,99732.23
2018-12-10T20:50:29.238Z,99743.23
2018-12-10T20:52:57.452Z,99735.30
2018-12-10T20:55:25.671Z,99740.23
2018-12-10T20:57:53.798Z,99735.98
2018-12-10T21:00:22.017Z,99739.45
2018-12-10T21:02:50.270Z,99733.02
2018-12-10T21:05:18.436Z,99741.53
2018-12-10T21:07:46.726Z,99737.08
2018-12-10T21:10:14.888Z,99736.75
2018-12-10T21:12:43.189Z,99735.64
2018-12-10T21:15:11.681Z,99736.44
2018-12-10T21:17:39.858Z,99735.36
2018-12-10T21:20:09.359Z,99743.77
2018-12-10T21:22:37.740Z,99745.38
2018-12-10T21:25:06.484Z,99750.30
2018-12-10T21:27:34.608Z,99741.69
2018-12-10T21:30:02.914Z,99747.77
2018-12-10T21:32:31.297Z,99753.32
2018-12-10T21:35:04.744Z,99753.86
2018-12-10T21:37:32.956Z,99757.02
2018-12-10T21:40:01.176Z,99756.59
2018-12-10T21:42:29.279Z,99752.53
2018-12-10T21:45:02.429Z,99760.31
2018-12-10T21:47:30.628Z,99757.97
2018-12-10T21:49:58.748Z,99751.67
2018-12-10T21:52:26.968Z,99755.88
2018-12-10T21:54:55.138Z,99754.25
2018-12-10T21:57:23.263Z,99756.83
2018-12-10T21:59:51.404Z,99751.64
2018-12-10T22:02:19.537Z,99754.23
2018-12-10T22:04:47.800Z,99757.13
2018-12-10T22:07:16.004Z,99763.67
2018-12-10T22:09:44.815Z,99764.31
2018-12-10T22:12:13.054Z,99760.64
2018-12-10T22:14:41.259Z,99743.59
2018-12-10T22:17:09.373Z,99751.63
2018-12-10T22:19:37.597Z,99749.67
2018-12-10T22:22:05.717Z,99750.75
2018-12-10T22:24:33.887Z,99753.74
2018-12-10T22:27:02.101Z,99756.80
2018-12-10T22:29:30.227Z,99752.22
2018-12-10T22:31:58.493Z,99750.39
2018-12-10T22:34:26.644Z,99754.39
2018-12-10T22:36:54.907Z,99747.31
2018-12-10T22:39:23.720Z,99750.36
2018-12-10T22:41:51.867Z,99749.08
2018-12-10T22:44:20.351Z,99756.73
2018-12-10T22:46:48.520Z,99756.73
2018-12-10T22:49:17.574Z,99758.84
2018-12-10T22:51:45.726Z,99756.73
2018-12-10T22:54:13.825Z,99744.31
2018-12-10T22:56:41.949Z,99742.66
2018-12-10T22:59:10.121Z,99736.55
2018-12-10T23:01:38.455Z,99741.83
2018-12-10T23:04:06.607Z,99746.05
2018-12-10T23:06:34.733Z,99744.81
2018-12-10T23:09:03.896Z,99755.97
2018-12-10T23:11:32.046Z,99752.30
2018-12-10T23:14:00.220Z,99744.27
2018-12-10T23:16:28.317Z,99749.59
2018-12-10T23:18:56.581Z,99742.26
2018-12-10T23:21:24.628Z,99732.45
2018-12-10T23:23:52.696Z,99721.86
2018-12-10T23:26:20.809Z,99728.11
2018-12-10T23:28:48.896Z,99718.67
2018-12-10T23:31:17.093Z,99713.36
2018-12-10T23:33:45.216Z,99717.47
2018-12-10T23:36:13.332Z,99714.38
2018-12-10T23:38:41.522Z,99715.23
2018-12-10T23:41:09.655Z,99713.49
2018-12-10T23:43:37.829Z,99715.23
2018-12-10T23:46:06.100Z,99720.75
2018-12-10T23:48:34.287Z,99723.50
2018-12-10T23:51:02.411Z,99717.17
2018-12-10T23:53:30.473Z,99711.41
2018-12-10T23:55:58.631Z,99727.75
2018-12-10T23:58:26.755Z,99713.98
